createdAt,value
2022-08-04T00:00:45.846Z,18.97
2022-08-04T00:03:28.782Z,18.69
2022-08-04T00:06:05.144Z,18.43
2022-08-04T00:08:48.027Z,18.22
2022-08-04T00:11:20.105Z,18.76
2022-08-04T00:14:02.421Z,19.26
2022-08-04T00:16:38.783Z,19.28
2022-08-04T00:19:17.509Z,19.05
2022-08-04T00:21:55.219Z,18.77
2022-08-04T00:24:22.754Z,18.50
2022-08-04T00:26:58.311Z,18.28
2022-08-04T00:29:33.525Z,18.67
2022-08-04T00:32:04.328Z,19.18
2022-08-04T00:34:34.081Z,19.21
2022-08-04T00:37:10.152Z,18.97
2022-08-04T00:39:46.012Z,18.65
2022-08-04T00:42:58.413Z,18.35
2022-08-04T00:46:16.496Z,18.04
2022-08-04T00:48:57.751Z,17.87
2022-08-04T00:52:32.397Z,18.57
2022-08-04T00:55:07.126Z,19.06
2022-08-04T00:57:48.291Z,18.92
2022-08-04T01:00:15.994Z,18.66
2022-08-04T01:02:59.471Z,18.40
2022-08-04T01:05:49.132Z,18.16
2022-08-04T01:08:46.781Z,17.99
2022-08-04T01:11:14.334Z,18.69
2022-08-04T01:13:47.459Z,19.14
2022-08-04T01:16:17.324Z,19.08
2022-08-04T01:19:07.053Z,18.84
2022-08-04T01:22:20.039Z,18.52
2022-08-04T01:25:02.309Z,18.19
2022-08-04T01:27:56.944Z,17.96
2022-08-04T01:30:32.248Z,18.60
2022-08-04T01:33:09.139Z,19.03
2022-08-04T01:35:55.346Z,18.97
2022-08-04T01:38:32.651Z,18.70
2022-08-04T01:41:03.039Z,18.41
2022-08-04T01:43:44.695Z,18.15
2022-08-04T01:46:17.903Z,17.91
2022-08-04T01:48:46.103Z,18.37
2022-08-04T01:51:17.355Z,18.88
2022-08-04T01:53:45.851Z,18.92
2022-08-04T01:56:15.441Z,18.72
2022-08-04T01:58:48.035Z,18.44
2022-08-04T02:01:20.187Z,18.17
2022-08-04T02:04:21.128Z,17.91
2022-08-04T02:06:40.830Z,17.71
2022-08-04T02:09:24.881Z,18.27
2022-08-04T02:12:34.656Z,18.84
2022-08-04T02:15:31.912Z,18.78
2022-08-04T02:18:02.606Z,18.49
2022-08-04T02:20:37.481Z,18.19
2022-08-04T02:23:20.401Z,17.91
2022-08-04T02:25:52.253Z,17.66
2022-08-04T02:28:23.628Z,18.12
2022-08-04T02:31:32.263Z,18.62
2022-08-04T02:34:32.211Z,18.56
2022-08-04T02:37:00.091Z,18.24
2022-08-04T02:39:47.769Z,17.96
2022-08-04T02:42:19.061Z,17.67
2022-08-04T02:44:58.486Z,17.46
2022-08-04T02:48:29.006Z,17.98
2022-08-04T02:50:46.603Z,18.54
2022-08-04T02:53:19.232Z,18.46
2022-08-04T02:55:50.928Z,18.22
2022-08-04T02:58:24.297Z,17.94
2022-08-04T03:00:52.323Z,17.70
2022-08-04T03:03:40.479Z,17.48
2022-08-04T03:06:10.563Z,17.98
2022-08-04T03:08:38.177Z,18.44
2022-08-04T03:11:11.803Z,18.43
2022-08-04T03:13:44.046Z,18.21
2022-08-04T03:16:11.477Z,17.94
2022-08-04T03:19:17.017Z,17.70
2022-08-04T03:22:19.444Z,17.50
2022-08-04T03:24:58.393Z,18.27
2022-08-04T03:28:04.875Z,18.65
2022-08-04T03:30:54.435Z,18.54
2022-08-04T03:33:46.033Z,18.30
2022-08-04T03:36:32.088Z,18.04
2022-08-04T03:39:17.783Z,17.83
2022-08-04T03:42:04.154Z,17.69
2022-08-04T03:44:42.108Z,18.39
2022-08-04T03:47:44.482Z,18.92
2022-08-04T03:50:38.184Z,18.88
2022-08-04T03:53:21.231Z,18.60
2022-08-04T03:56:07.016Z,18.34
2022-08-04T03:58:48.457Z,18.13
2022-08-04T04:02:02.846Z,17.98
2022-08-04T04:08:31.310Z,19.19
2022-08-04T04:11:13.505Z,19.17
2022-08-04T04:13:52.135Z,18.98
2022-08-04T04:16:42.156Z,18.79
2022-08-04T04:19:21.648Z,18.61
2022-08-04T04:22:10.626Z,18.50
2022-08-04T04:25:03.783Z,19.23
2022-08-04T04:27:43.550Z,19.86
2022-08-04T04:30:26.377Z,19.90
2022-08-04T04:33:17.866Z,19.74
2022-08-04T04:36:18.915Z,19.53
2022-08-04T04:39:15.923Z,19.36
2022-08-04T04:41:52.515Z,19.22
2022-08-04T04:44:30.444Z,19.14
2022-08-04T04:47:43.220Z,19.81
2022-08-04T04:50:22.033Z,20.58
2022-08-04T04:53:03.162Z,20.63
2022-08-04T04:55:46.391Z,20.38
2022-08-04T04:58:17.083Z,20.26
2022-08-04T05:00:47.605Z,20.13
2022-08-04T05:03:20.483Z,20.05
2022-08-04T05:06:15.333Z,20.02
2022-08-04T05:08:45.099Z,20.07
2022-08-04T05:11:25.884Z,20.86
2022-08-04T05:14:38.407Z,21.61
2022-08-04T05:16:51.725Z,21.79
2022-08-04T05:19:49.219Z,21.75
2022-08-04T05:22:33.243Z,21.61
2022-08-04T05:25:03.699Z,21.55
2022-08-04T05:27:40.927Z,21.48
2022-08-04T05:30:08.736Z,21.37
2022-08-04T05:32:48.456Z,21.36
2022-08-04T05:35:52.162Z,21.42
2022-08-04T05:38:20.443Z,21.57
2022-08-04T05:40:47.627Z,22.46
2022-08-04T05:43:15.070Z,23.28
2022-08-04T05:45:42.708Z,23.52
2022-08-04T05:48:10.099Z,23.56
2022-08-04T05:50:37.315Z,23.52
2022-08-04T05:53:04.505Z,23.45
2022-08-04T05:55:57.025Z,23.49
2022-08-04T05:58:19.325Z,23.60
2022-08-04T06:00:52.338Z,23.67
2022-08-04T06:03:20.496Z,23.74
2022-08-04T06:05:48.222Z,23.76
2022-08-04T06:08:15.800Z,23.80
2022-08-04T06:10:44.543Z,23.92
2022-08-04T06:13:49.729Z,24.01
2022-08-04T06:16:03.171Z,24.15
2022-08-04T06:19:57.631Z,24.30
2022-08-04T06:21:22.040Z,24.40
2022-08-04T06:23:53.584Z,24.52
2022-08-04T06:26:25.410Z,24.72
2022-08-04T06:28:56.000Z,24.93
2022-08-04T06:32:27.740Z,25.14
2022-08-04T06:34:29.312Z,25.33
2022-08-04T06:36:56.586Z,25.47
2022-08-04T06:39:25.349Z,25.53
2022-08-04T06:42:14.839Z,25.65
2022-08-04T06:44:50.413Z,25.80
2022-08-04T06:47:22.847Z,25.90
2022-08-04T06:51:23.212Z,25.94
2022-08-04T06:52:42.301Z,26.08
2022-08-04T06:55:09.521Z,26.25
2022-08-04T06:57:41.185Z,26.47
2022-08-04T07:00:12.587Z,26.62
2022-08-04T07:02:49.768Z,26.83
2022-08-04T07:05:17.464Z,26.98
2022-08-04T07:07:57.119Z,27.11
2022-08-04T07:10:28.814Z,27.30
2022-08-04T07:13:01.711Z,27.47
2022-08-04T07:15:29.075Z,27.62
2022-08-04T07:18:01.526Z,27.85
2022-08-04T07:20:35.706Z,28.03
2022-08-04T07:23:07.563Z,28.23
2022-08-04T07:26:00.794Z,28.45
2022-08-04T07:28:27.910Z,28.69
2022-08-04T07:30:56.104Z,28.88
2022-08-04T07:33:24.068Z,29.02
2022-08-04T07:36:05.356Z,29.10
2022-08-04T07:38:48.756Z,29.10
2022-08-04T07:41:39.534Z,29.02
2022-08-04T07:44:07.204Z,29.10
2022-08-04T07:46:35.672Z,29.23
2022-08-04T07:49:03.079Z,29.37
2022-08-04T07:51:31.141Z,29.63
2022-08-04T07:53:59.099Z,29.85
2022-08-04T07:56:27.156Z,30.08
2022-08-04T07:58:54.665Z,30.36
2022-08-04T08:01:22.406Z,30.51
2022-08-04T08:03:54.142Z,30.57
2022-08-04T08:06:32.295Z,30.52
2022-08-04T08:09:12.436Z,30.67
2022-08-04T08:12:38.719Z,30.95
2022-08-04T08:14:27.733Z,31.31
2022-08-04T08:16:55.075Z,31.61
2022-08-04T08:19:22.298Z,31.85
2022-08-04T08:21:59.696Z,32.07
2022-08-04T08:24:32.188Z,32.25
2022-08-04T08:27:00.662Z,32.34
2022-08-04T08:29:29.516Z,32.50
2022-08-04T08:32:01.360Z,32.65
2022-08-04T08:34:33.000Z,32.81
2022-08-04T08:37:09.935Z,32.97
2022-08-04T08:39:54.963Z,32.88
2022-08-04T08:42:42.618Z,32.48
2022-08-04T08:45:18.033Z,32.25
2022-08-04T08:48:07.866Z,32.42
2022-08-04T08:50:56.687Z,32.71
2022-08-04T08:53:49.371Z,33.03
2022-08-04T08:56:42.216Z,33.18
2022-08-04T08:59:38.278Z,33.26
2022-08-04T09:02:27.143Z,33.42
2022-08-04T09:05:06.419Z,33.68
2022-08-04T09:07:39.783Z,33.84
2022-08-04T09:10:33.115Z,33.99
2022-08-04T09:13:24.928Z,34.16
2022-08-04T09:16:30.095Z,34.26
2022-08-04T09:19:38.647Z,34.26
2022-08-04T09:22:12.783Z,34.32
2022-08-04T09:24:54.417Z,34.11
2022-08-04T09:27:28.704Z,34.06
2022-08-04T09:30:02.035Z,34.00
2022-08-04T09:32:38.601Z,33.78
2022-08-04T09:35:24.816Z,33.73
2022-08-04T09:38:22.010Z,33.71
2022-08-04T09:40:57.041Z,33.67
2022-08-04T09:44:43.218Z,33.73
2022-08-04T09:46:37.579Z,33.75
2022-08-04T09:49:21.727Z,33.73
2022-08-04T09:51:58.328Z,33.57
2022-08-04T09:54:29.878Z,33.59
2022-08-04T09:57:37.693Z,33.63
2022-08-04T10:00:08.367Z,33.77
2022-08-04T10:02:45.101Z,33.92
2022-08-04T10:05:15.162Z,34.05
2022-08-04T10:08:15.704Z,34.26
2022-08-04T10:11:23.569Z,34.53
2022-08-04T10:14:05.415Z,34.51
2022-08-04T10:16:48.077Z,34.20
2022-08-04T10:19:25.017Z,34.23
2022-08-04T10:22:30.689Z,34.48
2022-08-04T10:25:37.389Z,34.69
2022-08-04T10:27:59.187Z,34.84
2022-08-04T10:30:26.571Z,34.66
2022-08-04T10:33:28.104Z,34.18
2022-08-04T10:36:00.674Z,33.51
2022-08-04T10:38:37.696Z,33.04
2022-08-04T10:41:05.274Z,32.59
2022-08-04T10:43:53.833Z,32.29
2022-08-04T10:46:32.169Z,32.03
2022-08-04T10:49:28.572Z,31.93
2022-08-04T10:52:20.770Z,31.81
2022-08-04T10:54:52.081Z,31.68
2022-08-04T10:57:39.984Z,31.59
2022-08-04T11:00:39.695Z,31.45
2022-08-04T11:03:17.774Z,31.36
2022-08-04T11:05:48.812Z,31.46
2022-08-04T11:08:21.613Z,31.76
2022-08-04T11:11:28.102Z,32.22
2022-08-04T11:14:07.636Z,32.65
2022-08-04T11:16:56.167Z,32.98
2022-08-04T11:19:53.521Z,33.22
2022-08-04T11:22:22.221Z,33.33
2022-08-04T11:25:19.407Z,33.22
2022-08-04T11:28:13.188Z,33.33
2022-08-04T11:30:51.582Z,33.43
2022-08-04T11:33:48.046Z,33.59
2022-08-04T11:36:31.440Z,33.83
2022-08-04T11:39:11.499Z,33.66
2022-08-04T11:41:57.800Z,33.34
2022-08-04T11:44:33.425Z,32.90
2022-08-04T11:47:07.198Z,32.39
2022-08-04T11:49:57.194Z,31.98
2022-08-04T11:52:26.727Z,31.64
2022-08-04T11:54:54.587Z,31.38
2022-08-04T11:57:35.208Z,31.30
2022-08-04T12:00:13.868Z,31.35
2022-08-04T12:03:14.133Z,31.34
2022-08-04T12:06:13.417Z,31.54
2022-08-04T12:08:59.728Z,31.62
2022-08-04T12:11:51.138Z,31.65
2022-08-04T12:14:46.585Z,31.77
2022-08-04T12:17:14.048Z,31.85
2022-08-04T12:20:03.911Z,31.81
2022-08-04T12:22:42.728Z,32.00
2022-08-04T12:25:14.384Z,32.10
2022-08-04T12:28:05.737Z,32.11
2022-08-04T12:30:58.446Z,32.14
2022-08-04T12:34:03.817Z,32.22
2022-08-04T12:36:25.530Z,32.48
2022-08-04T12:39:09.448Z,32.65
2022-08-04T12:41:45.277Z,32.69
2022-08-04T12:44:33.381Z,32.58
2022-08-04T12:47:36.456Z,32.53
2022-08-04T12:50:04.902Z,32.47
2022-08-04T12:53:01.120Z,32.47
2022-08-04T12:55:37.345Z,32.57
2022-08-04T12:58:43.089Z,32.63
2022-08-04T13:02:10.975Z,32.68
2022-08-04T13:04:15.203Z,32.62
2022-08-04T13:06:54.195Z,32.59
2022-08-04T13:09:21.580Z,32.52
2022-08-04T13:11:58.054Z,32.44
2022-08-04T13:14:31.034Z,32.46
2022-08-04T13:17:00.232Z,32.28
2022-08-04T13:19:28.867Z,31.93
2022-08-04T13:22:02.879Z,31.64
2022-08-04T13:24:35.502Z,31.58
2022-08-04T13:27:16.330Z,31.51
2022-08-04T13:30:00.784Z,31.53
2022-08-04T13:32:42.725Z,31.57
2022-08-04T13:35:13.111Z,31.65
2022-08-04T13:37:40.494Z,31.71
2022-08-04T13:40:10.131Z,31.76
2022-08-04T13:42:37.521Z,31.75
2022-08-04T13:45:09.029Z,31.59
2022-08-04T13:47:38.413Z,31.33
2022-08-04T13:50:26.319Z,31.08
2022-08-04T13:52:55.052Z,30.83
2022-08-04T13:55:28.236Z,30.65
2022-08-04T13:58:01.879Z,30.51
2022-08-04T14:00:40.460Z,30.51
2022-08-04T14:03:23.645Z,30.51
2022-08-04T14:06:12.603Z,30.41
2022-08-04T14:08:57.441Z,30.34
2022-08-04T14:12:10.800Z,30.45
2022-08-04T14:14:30.519Z,30.56
2022-08-04T14:17:05.697Z,30.57
2022-08-04T14:19:50.639Z,30.63
2022-08-04T14:22:27.879Z,30.68
2022-08-04T14:25:04.425Z,30.59
2022-08-04T14:27:52.122Z,30.46
2022-08-04T14:30:48.700Z,30.32
2022-08-04T14:34:01.725Z,30.24
2022-08-04T14:36:14.693Z,30.20
2022-08-04T14:38:58.393Z,30.21
2022-08-04T14:41:32.721Z,30.09
2022-08-04T14:44:00.711Z,30.10
2022-08-04T14:46:36.893Z,30.07
2022-08-04T14:49:12.438Z,30.09
2022-08-04T14:51:51.713Z,30.10
2022-08-04T14:54:40.014Z,30.10
2022-08-04T14:57:12.829Z,30.12
2022-08-04T14:59:56.046Z,30.09
2022-08-04T15:02:29.968Z,30.13
2022-08-04T15:05:59.795Z,30.17
2022-08-04T15:07:55.666Z,30.20
2022-08-04T15:10:23.128Z,30.21
2022-08-04T15:12:53.197Z,30.26
2022-08-04T15:15:36.441Z,30.29
2022-08-04T15:18:04.855Z,30.27
2022-08-04T15:20:32.601Z,30.19
2022-08-04T15:23:00.071Z,30.14
2022-08-04T15:25:27.454Z,30.08
2022-08-04T15:27:54.930Z,30.09
2022-08-04T15:30:21.975Z,30.09
2022-08-04T15:32:52.234Z,30.06
2022-08-04T15:35:28.833Z,29.99
2022-08-04T15:38:30.885Z,29.93
2022-08-04T15:41:14.867Z,29.96
2022-08-04T15:44:03.828Z,30.02
2022-08-04T15:46:46.798Z,29.98
2022-08-04T15:49:25.118Z,29.96
2022-08-04T15:52:03.157Z,29.89
2022-08-04T15:54:36.914Z,29.83
2022-08-04T15:57:06.446Z,29.74
2022-08-04T16:00:11.069Z,29.64
2022-08-04T16:02:43.993Z,29.50
2022-08-04T16:05:17.260Z,29.42
2022-08-04T16:08:00.205Z,29.31
2022-08-04T16:10:31.508Z,29.23
2022-08-04T16:13:03.905Z,29.09
2022-08-04T16:15:47.978Z,28.93
2022-08-04T16:18:27.494Z,28.83
2022-08-04T16:20:57.129Z,28.76
2022-08-04T16:23:59.370Z,28.69
2022-08-04T16:26:54.798Z,28.66
2022-08-04T16:29:23.680Z,28.64
2022-08-04T16:32:09.546Z,28.61
2022-08-04T16:35:04.884Z,28.58
2022-08-04T16:37:34.308Z,28.54
2022-08-04T16:40:35.316Z,28.51
2022-08-04T16:43:18.717Z,28.48
2022-08-04T16:46:15.762Z,28.43
2022-08-04T16:49:05.341Z,28.36
2022-08-04T16:51:41.397Z,28.27
2022-08-04T16:54:08.697Z,28.17
2022-08-04T16:56:36.911Z,28.11
2022-08-04T16:59:08.910Z,28.04
2022-08-04T17:01:36.789Z,27.97
2022-08-04T17:04:07.914Z,27.91
2022-08-04T17:06:42.003Z,27.84
2022-08-04T17:09:14.192Z,27.81
2022-08-04T17:11:42.873Z,27.75
2022-08-04T17:14:10.449Z,27.68
2022-08-04T17:16:59.678Z,27.63
2022-08-04T17:19:27.208Z,27.55
2022-08-04T17:22:06.059Z,27.43
2022-08-04T17:24:35.461Z,27.29
2022-08-04T17:27:04.080Z,27.11
2022-08-04T17:29:44.622Z,26.95
2022-08-04T17:32:16.962Z,26.82
2022-08-04T17:34:53.740Z,26.73
2022-08-04T17:37:53.014Z,26.63
2022-08-04T17:40:22.716Z,26.56
2022-08-04T17:44:04.441Z,26.53
2022-08-04T17:46:28.743Z,26.43
2022-08-04T17:48:58.660Z,26.23
2022-08-04T17:52:04.248Z,26.10
2022-08-04T17:54:39.970Z,25.93
2022-08-04T17:57:25.563Z,25.81
2022-08-04T17:59:59.366Z,25.67
2022-08-04T18:02:32.708Z,25.54
2022-08-04T18:05:07.857Z,25.39
2022-08-04T18:08:34.517Z,25.20
2022-08-04T18:10:52.402Z,25.04
2022-08-04T18:13:25.186Z,24.86
2022-08-04T18:16:06.208Z,24.71
2022-08-04T18:18:42.015Z,24.58
2022-08-04T18:21:16.463Z,24.52
2022-08-04T18:23:50.962Z,24.47
2022-08-04T18:26:23.781Z,24.41
2022-08-04T18:28:51.828Z,24.36
2022-08-04T18:31:19.447Z,24.87
2022-08-04T18:33:56.910Z,25.51
2022-08-04T18:36:34.059Z,25.62
2022-08-04T18:39:12.993Z,25.44
2022-08-04T18:42:02.140Z,25.19
2022-08-04T18:44:51.866Z,24.93
2022-08-04T18:47:23.601Z,24.69
2022-08-04T18:50:59.628Z,24.48
2022-08-04T18:52:47.641Z,24.25
2022-08-04T18:55:23.220Z,24.06
2022-08-04T18:58:11.914Z,23.89
2022-08-04T19:00:45.138Z,23.77
2022-08-04T19:03:22.866Z,24.26
2022-08-04T19:05:53.347Z,24.90
2022-08-04T19:08:35.469Z,24.96
2022-08-04T19:11:37.056Z,24.75
2022-08-04T19:14:05.064Z,24.43
2022-08-04T19:16:36.287Z,24.16
2022-08-04T19:19:07.592Z,23.89
2022-08-04T19:24:28.821Z,23.46
2022-08-04T19:27:06.481Z,23.29
2022-08-04T19:29:54.647Z,23.88
2022-08-04T19:32:25.048Z,24.35
2022-08-04T19:34:57.083Z,24.37
2022-08-04T19:38:01.226Z,24.14
2022-08-04T19:40:33.745Z,23.84
2022-08-04T19:43:14.440Z,23.57
2022-08-04T19:45:45.026Z,23.34
2022-08-04T19:48:19.346Z,23.14
2022-08-04T19:50:47.498Z,22.96
2022-08-04T19:53:19.224Z,22.82
2022-08-04T19:55:49.877Z,23.28
2022-08-04T19:58:17.943Z,23.85
2022-08-04T20:00:51.302Z,23.91
2022-08-04T20:03:21.479Z,23.73
2022-08-04T20:05:55.947Z,23.51
2022-08-04T20:08:27.927Z,23.27
2022-08-04T20:11:00.947Z,23.03
2022-08-04T20:13:38.733Z,22.82
2022-08-04T20:16:28.567Z,22.63
2022-08-04T20:19:03.411Z,22.49
2022-08-04T20:21:36.509Z,23.11
2022-08-04T20:24:36.553Z,23.66
2022-08-04T20:27:08.864Z,23.59
2022-08-04T20:29:41.102Z,23.39
2022-08-04T20:32:13.628Z,23.13
2022-08-04T20:34:46.827Z,22.89
2022-08-04T20:37:16.564Z,22.67
2022-08-04T20:39:44.490Z,22.48
2022-08-04T20:42:16.601Z,22.30
2022-08-04T20:44:55.179Z,22.78
2022-08-04T20:47:22.887Z,23.24
2022-08-04T20:49:53.854Z,23.27
2022-08-04T20:52:30.879Z,23.08
2022-08-04T20:55:04.784Z,22.83
2022-08-04T20:57:49.511Z,22.58
2022-08-04T21:00:29.809Z,22.33
2022-08-04T21:03:00.423Z,22.15
2022-08-04T21:05:28.608Z,22.00
2022-08-04T21:07:57.229Z,22.47
2022-08-04T21:10:29.317Z,23.04
2022-08-04T21:13:00.304Z,23.10
2022-08-04T21:15:58.736Z,22.91
2022-08-04T21:18:18.846Z,22.60
2022-08-04T21:20:59.572Z,22.32
2022-08-04T21:23:33.976Z,22.06
2022-08-04T21:26:10.854Z,21.84
2022-08-04T21:28:44.393Z,21.65
2022-08-04T21:31:22.239Z,22.20
2022-08-04T21:33:52.619Z,22.73
2022-08-04T21:36:20.286Z,22.77
2022-08-04T21:38:51.200Z,22.58
2022-08-04T21:44:18.699Z,22.05
2022-08-04T21:46:50.756Z,21.83
2022-08-04T21:49:25.692Z,21.65
2022-08-04T21:51:59.018Z,22.16
2022-08-04T21:54:29.242Z,22.71
2022-08-04T21:56:56.705Z,22.76
2022-08-04T21:59:30.933Z,22.57
2022-08-04T22:02:04.377Z,22.30
2022-08-04T22:04:38.576Z,22.04
2022-08-04T22:07:11.046Z,21.82
2022-08-04T22:09:41.595Z,21.64
2022-08-04T22:12:21.772Z,22.12
2022-08-04T22:17:47.717Z,22.63
2022-08-04T22:20:28.066Z,22.39
2022-08-04T22:23:15.441Z,22.07
2022-08-04T22:25:55.491Z,21.76
2022-08-04T22:28:28.551Z,21.51
2022-08-04T22:30:59.457Z,21.30
2022-08-04T22:33:54.616Z,21.88
2022-08-04T22:36:28.659Z,22.32
2022-08-04T22:39:15.283Z,22.26
2022-08-04T22:41:48.556Z,22.00
2022-08-04T22:44:19.789Z,21.71
2022-08-04T22:46:52.960Z,21.43
2022-08-04T22:49:31.899Z,21.17
2022-08-04T22:52:12.714Z,20.97
2022-08-04T22:55:10.922Z,21.69
2022-08-04T22:58:04.536Z,22.12
2022-08-04T23:00:58.314Z,22.03
2022-08-04T23:03:37.406Z,21.74
2022-08-04T23:06:11.523Z,21.43
2022-08-04T23:08:46.695Z,21.15
2022-08-04T23:11:24.749Z,20.93
2022-08-04T23:14:15.774Z,21.46
2022-08-04T23:16:48.967Z,21.93
2022-08-04T23:19:24.738Z,21.88
2022-08-04T23:22:15.923Z,21.60
2022-08-04T23:25:01.055Z,21.28
2022-08-04T23:27:43.917Z,20.99
2022-08-04T23:30:21.786Z,20.75
2022-08-04T23:33:11.318Z,21.30
2022-08-04T23:36:05.179Z,21.74
2022-08-04T23:38:42.118Z,21.65
2022-08-04T23:41:19.970Z,21.38
2022-08-04T23:43:55.267Z,21.10
2022-08-04T23:46:31.973Z,20.84
2022-08-04T23:49:10.821Z,20.62
2022-08-04T23:51:46.894Z,21.10
2022-08-04T23:54:31.541Z,21.57
2022-08-04T23:57:17.006Z,21.53
